Time;durP1;ratioP1;P1;durP2;ratioP2;P2;SDS_P1;SDS_P2;PMS_P1;PMS_P2;Temp;Humidity;BMP_temperature;BMP_pressure;BME280_temperature;BME280_humidity;BME280_pressure;Samples;Min_cycle;Max_cycle;Signal;HPM_P1;HPM_P2
2023/12/27 00:00:15;;;;;;;;;94.50;87.25;;;;;9.19;54.88;99866.25;5045159;28;10545;-77
2023/12/27 00:03:04;;;;;;;;;95.00;89.00;;;;;9.02;55.41;99871.66;5046063;28;10524;-76
2023/12/27 00:05:34;;;;;;;;;91.00;83.75;;;;;8.78;56.27;99877.97;5046824;28;10476;-75
2023/12/27 00:08:03;;;;;;;;;95.75;86.50;;;;;8.90;55.56;99875.28;5016251;28;10659;-76
2023/12/27 00:10:32;;;;;;;;;99.25;88.50;;;;;8.96;55.36;99882.22;5033082;28;10716;-75
2023/12/27 00:13:01;;;;;;;;;100.00;91.00;;;;;8.88;55.63;99891.91;5067721;28;10714;-76
2023/12/27 00:15:32;;;;;;;;;95.75;89.00;;;;;8.82;56.20;99892.81;5050951;28;11167;-76
2023/12/27 00:18:01;;;;;;;;;97.75;87.00;;;;;8.83;55.77;99891.94;5039802;28;11007;-76
2023/12/27 00:20:31;;;;;;;;;92.25;84.25;;;;;8.89;55.52;99894.50;5045861;28;10596;-76
2023/12/27 00:23:00;;;;;;;;;98.50;92.00;;;;;8.78;56.14;99896.31;5009198;28;10541;-78
2023/12/27 00:25:29;;;;;;;;;92.25;79.75;;;;;8.62;56.73;99906.06;5026051;28;10957;-76
2023/12/27 00:27:58;;;;;;;;;90.50;79.75;;;;;8.78;56.18;99904.19;5026241;28;10636;-76
2023/12/27 00:30:28;;;;;;;;;82.75;68.00;;;;;8.84;55.92;99904.16;5024100;28;10745;-76
2023/12/27 00:32:58;;;;;;;;;90.50;84.25;;;;;8.83;56.19;99907.66;5045718;28;10677;-75
2023/12/27 00:35:28;;;;;;;;;94.00;82.75;;;;;8.87;56.16;99913.75;5045721;28;10552;-78
2023/12/27 00:37:57;;;;;;;;;88.00;78.75;;;;;8.82;56.74;99905.94;5045616;28;10426;-76
2023/12/27 00:40:26;;;;;;;;;88.75;79.00;;;;;8.77;56.57;99920.81;5029125;28;10298;-77
2023/12/27 00:42:55;;;;;;;;;90.00;79.25;;;;;8.73;56.55;99932.22;5044986;28;10374;-75
2023/12/27 00:45:24;;;;;;;;;89.00;78.50;;;;;8.82;55.99;99940.88;5002641;28;10239;-75
2023/12/27 00:47:53;;;;;;;;;87.50;77.00;;;;;8.85;56.10;99932.09;4986828;28;10488;-78
2023/12/27 00:50:24;;;;;;;;;88.50;76.00;;;;;8.88;55.95;99931.22;4986966;28;10397;-76
2023/12/27 00:52:53;;;;;;;;;89.50;75.50;;;;;8.90;55.53;99942.56;4994635;28;10241;-76
2023/12/27 00:55:22;;;;;;;;;87.00;77.50;;;;;8.92;55.49;99944.28;4998143;28;10172;-76
2023/12/27 00:57:51;;;;;;;;;87.25;75.75;;;;;8.94;55.94;99957.41;5025206;28;10179;-78
2023/12/27 01:00:20;;;;;;;;;91.00;84.50;;;;;8.79;55.88;99954.00;5024512;28;10280;-75
2023/12/27 01:02:49;;;;;;;;;90.50;80.75;;;;;8.86;55.91;99964.47;4943865;28;10042;-76
2023/12/27 01:05:18;;;;;;;;;90.75;84.50;;;;;8.79;55.92;99966.22;5025421;28;10278;-73
2023/12/27 01:07:49;;;;;;;;;91.50;80.00;;;;;8.79;55.99;99958.38;5008869;28;10990;-74
2023/12/27 01:10:18;;;;;;;;;85.25;70.75;;;;;8.60;56.68;99962.88;4992870;28;10575;-74
2023/12/27 01:12:48;;;;;;;;;87.50;75.50;;;;;8.52;57.04;99973.41;5009303;28;9930;-76
2023/12/27 01:15:18;;;;;;;;;85.25;74.50;;;;;8.58;56.83;99970.72;4991641;28;10253;-75
2023/12/27 01:17:46;;;;;;;;;88.25;77.25;;;;;8.55;56.97;99980.34;5028045;28;10097;-75
2023/12/27 01:20:16;;;;;;;;;91.25;84.00;;;;;8.47;57.16;99982.16;5012400;28;10066;-75
2023/12/27 01:22:47;;;;;;;;;91.25;82.50;;;;;8.56;56.22;99987.34;5013956;28;10250;-74
2023/12/27 01:25:18;;;;;;;;;85.50;71.00;;;;;8.61;56.27;99983.81;5013538;28;10180;-75
2023/12/27 01:27:47;;;;;;;;;87.50;78.50;;;;;8.67;56.32;99984.66;5029603;28;10181;-77
2023/12/27 01:30:20;;;;;;;;;92.25;83.50;;;;;8.69;55.78;99981.16;5027898;28;10445;-75
2023/12/27 01:32:49;;;;;;;;;96.00;87.50;;;;;8.66;55.50;99978.53;5032205;28;10312;-74
2023/12/27 01:35:19;;;;;;;;;93.25;82.50;;;;;8.67;55.83;99982.91;5013838;28;10643;-75
2023/12/27 01:37:48;;;;;;;;;88.75;76.50;;;;;8.68;55.73;99978.53;5048086;28;11026;-75
2023/12/27 01:40:18;;;;;;;;;84.75;71.50;;;;;8.60;56.39;99978.59;5029820;28;10367;-75
2023/12/27 01:42:47;;;;;;;;;94.25;85.25;;;;;8.61;56.17;99980.31;5046912;28;9627;-73
2023/12/27 01:45:16;;;;;;;;;87.50;76.50;;;;;8.58;56.28;99978.59;5052824;28;10854;-75
2023/12/27 01:47:47;;;;;;;;;85.00;71.25;;;;;8.56;56.48;99982.13;5028905;28;10155;-75
2023/12/27 01:50:17;;;;;;;;;90.50;79.75;;;;;8.58;56.05;99980.34;5030134;28;10181;-77
2023/12/27 01:52:47;;;;;;;;;96.75;86.25;;;;;8.56;55.97;99982.97;5047011;28;10590;-75
2023/12/27 01:55:18;;;;;;;;;95.00;81.75;;;;;8.54;55.97;99982.13;5061230;28;10641;-77
2023/12/27 01:57:47;;;;;;;;;91.75;80.75;;;;;8.56;56.02;99974.25;5053750;28;10480;-75
2023/12/27 02:00:17;;;;;;;;;92.25;83.00;;;;;8.55;56.25;99969.88;5047395;28;10566;-75
2023/12/27 02:02:47;;;;;;;;;90.50;84.25;;;;;8.54;56.21;99960.28;5050931;28;10452;-76
2023/12/27 02:05:17;;;;;;;;;92.50;85.75;;;;;8.51;56.22;99961.16;5073446;28;11070;-75
2023/12/27 02:07:47;;;;;;;;;97.75;88.00;;;;;8.48;56.57;99963.81;5089072;28;10631;-74
2023/12/27 02:10:18;;;;;;;;;100.75;95.75;;;;;8.51;56.26;99971.63;5071310;28;10808;-75
2023/12/27 02:12:47;;;;;;;;;107.75;98.00;;;;;8.49;56.27;99962.06;5069971;28;10757;-75
2023/12/27 02:15:16;;;;;;;;;112.00;95.50;;;;;8.40;56.53;99966.47;5065145;28;10750;-76
2023/12/27 02:17:48;;;;;;;;;95.25;86.25;;;;;8.29;56.73;99969.97;5056937;28;10855;-75
2023/12/27 02:20:18;;;;;;;;;113.25;96.25;;;;;8.34;56.22;99976.09;4999499;28;11142;-75
2023/12/27 02:22:50;;;;;;;;;103.50;94.25;;;;;8.35;56.65;99983.09;5031627;28;11260;-76
2023/12/27 02:25:21;;;;;;;;;103.75;94.00;;;;;8.26;57.12;99978.72;5048128;28;11066;-77
2023/12/27 02:27:50;;;;;;;;;107.00;99.75;;;;;8.25;57.00;99977.88;5031384;28;11480;-76
2023/12/27 02:30:20;;;;;;;;;102.75;99.75;;;;;8.17;57.23;99986.63;5013299;28;11317;-76
2023/12/27 02:32:50;;;;;;;;;101.00;95.75;;;;;8.16;57.43;99988.38;5031493;28;11186;-73
2023/12/27 02:35:20;;;;;;;;;105.00;92.00;;;;;8.11;57.13;99998.00;5031341;28;11247;-76
2023/12/27 02:37:49;;;;;;;;;104.00;97.50;;;;;8.10;57.06;100005.84;5031175;28;11293;-75
2023/12/27 02:40:18;;;;;;;;;96.50;89.50;;;;;7.98;57.68;99997.16;5031360;28;11210;-75
2023/12/27 02:42:48;;;;;;;;;105.75;94.50;;;;;7.99;57.66;99993.69;5011063;28;11154;-75
2023/12/27 02:45:18;;;;;;;;;99.50;91.25;;;;;8.04;57.15;100001.50;5008587;28;11214;-78
2023/12/27 02:47:47;;;;;;;;;100.50;96.00;;;;;8.02;57.12;99998.91;4995151;28;11153;-76
2023/12/27 02:50:16;;;;;;;;;97.25;93.75;;;;;8.02;57.25;100001.53;5028259;28;11048;-75
2023/12/27 02:52:45;;;;;;;;;101.25;96.75;;;;;8.03;57.14;100005.88;5010992;28;10925;-73
2023/12/27 02:55:16;;;;;;;;;92.00;83.00;;;;;8.02;57.31;99998.00;5000524;28;11110;-74
2023/12/27 02:57:44;;;;;;;;;99.25;89.25;;;;;7.86;58.17;100005.91;4985412;28;10655;-75
2023/12/27 03:00:16;;;;;;;;;97.25;81.50;;;;;7.71;58.79;100021.66;5009443;28;11084;-78
2023/12/27 03:02:45;;;;;;;;;95.25;88.50;;;;;7.80;58.70;100026.88;5018656;28;10658;-77
2023/12/27 03:05:14;;;;;;;;;105.00;92.00;;;;;7.82;58.80;100029.50;5030196;28;10668;-75
2023/12/27 03:07:43;;;;;;;;;92.50;85.75;;;;;7.86;58.83;100024.25;5007517;28;10693;-74
2023/12/27 03:10:12;;;;;;;;;91.50;80.50;;;;;7.94;57.83;100023.34;4991279;28;10427;-77
2023/12/27 03:12:41;;;;;;;;;96.00;86.50;;;;;8.04;57.61;100019.81;4968463;28;10587;-75
2023/12/27 03:15:10;;;;;;;;;94.00;83.75;;;;;8.11;57.70;100016.31;4990456;28;10586;-76
2023/12/27 03:17:41;;;;;;;;;94.75;85.50;;;;;7.93;58.41;100016.38;4971526;28;11404;-76
2023/12/27 03:20:11;;;;;;;;;90.75;82.00;;;;;7.97;58.69;100021.59;4991091;28;10550;-74
2023/12/27 03:22:40;;;;;;;;;93.00;87.00;;;;;7.96;58.13;100032.06;4991108;28;10294;-75
2023/12/27 03:25:09;;;;;;;;;89.25;80.00;;;;;7.79;59.39;100035.59;5002824;28;10423;-75
2023/12/27 03:27:38;;;;;;;;;86.00;73.50;;;;;7.90;58.79;100038.19;4990744;28;10356;-75
2023/12/27 03:30:08;;;;;;;;;89.25;81.00;;;;;8.02;58.46;100034.66;4990898;28;10941;-74
2023/12/27 03:32:37;;;;;;;;;89.00;80.00;;;;;8.01;58.76;100032.94;4973057;28;10084;-75
2023/12/27 03:35:08;;;;;;;;;88.25;77.75;;;;;8.22;58.22;100045.09;5007078;28;10175;-77
2023/12/27 03:37:38;;;;;;;;;88.75;73.75;;;;;8.27;57.87;100044.22;5009214;28;10053;-74
2023/12/27 03:40:09;;;;;;;;;89.00;78.75;;;;;8.38;57.57;100053.78;5047683;28;9993;-76
2023/12/27 03:42:37;;;;;;;;;88.50;79.25;;;;;8.51;57.20;100060.72;5030152;28;10469;-77
2023/12/27 03:45:08;;;;;;;;;91.50;82.25;;;;;8.64;56.65;100056.31;5050793;28;9924;-75
2023/12/27 03:47:36;;;;;;;;;90.00;80.00;;;;;8.76;56.40;100066.75;5073058;28;10256;-75
2023/12/27 03:50:08;;;;;;;;;90.25;73.75;;;;;8.87;56.19;100076.28;5026673;28;10920;-77
2023/12/27 03:52:37;;;;;;;;;89.00;78.50;;;;;8.94;55.67;100073.63;4993868;28;10057;-74
2023/12/27 03:55:08;;;;;;;;;88.00;79.00;;;;;9.01;55.83;100072.72;4961561;28;9885;-75
2023/12/27 03:57:37;;;;;;;;;90.75;78.25;;;;;9.11;55.48;100070.03;4970682;28;10106;-76
2023/12/27 04:00:10;;;;;;;;;88.00;77.50;;;;;9.17;55.36;100077.84;4970643;28;10276;-76
2023/12/27 04:02:41;;;;;;;;;86.75;76.00;;;;;9.24;54.96;100069.94;5000727;28;10081;-75
2023/12/27 04:05:12;;;;;;;;;87.50;76.00;;;;;9.29;54.83;100079.50;5006483;28;9964;-75
2023/12/27 04:07:41;;;;;;;;;88.25;75.75;;;;;9.35;54.49;100076.88;4990481;28;10068;-74
2023/12/27 04:10:10;;;;;;;;;86.25;78.00;;;;;9.38;54.49;100080.31;5006685;28;9811;-76
2023/12/27 04:12:40;;;;;;;;;89.00;77.00;;;;;9.38;54.36;100082.06;4991345;28;9947;-74
2023/12/27 04:15:10;;;;;;;;;82.75;68.25;;;;;9.41;54.01;100084.69;4992117;28;9953;-75
2023/12/27 04:17:39;;;;;;;;;85.50;75.75;;;;;9.45;53.84;100085.53;4956171;28;9745;-76
2023/12/27 04:20:11;;;;;;;;;88.75;76.25;;;;;9.46;53.88;100089.88;4990136;28;10167;-75
2023/12/27 04:22:40;;;;;;;;;87.75;78.50;;;;;9.49;53.70;100093.34;4987900;28;10019;-75
2023/12/27 04:25:09;;;;;;;;;86.50;77.00;;;;;9.50;53.50;100102.09;4960166;28;10713;-76
2023/12/27 04:27:38;;;;;;;;;119.00;109.00;;;;;9.50;53.77;100103.00;4986896;28;10319;-77
2023/12/27 04:30:09;;;;;;;;;89.75;82.00;;;;;9.49;53.63;100098.59;5012628;28;11647;-75
2023/12/27 04:32:39;;;;;;;;;87.25;79.25;;;;;9.50;53.42;100095.13;5013173;28;10523;-75
2023/12/27 04:35:08;;;;;;;;;81.25;70.00;;;;;9.51;53.42;100094.22;5045724;28;11132;-75
2023/12/27 04:37:38;;;;;;;;;86.25;76.00;;;;;9.54;53.41;100091.59;5045656;28;10602;-75
2023/12/27 04:40:08;;;;;;;;;86.00;72.00;;;;;9.33;53.44;100092.63;5003541;28;10062;-74
2023/12/27 04:42:38;;;;;;;;;85.50;73.00;;;;;9.19;54.10;100100.56;4992881;28;9829;-75
2023/12/27 04:45:08;;;;;;;;;84.50;72.25;;;;;9.22;54.12;100102.31;5009412;28;9798;-79
2023/12/27 04:47:37;;;;;;;;;85.25;68.50;;;;;9.09;54.31;100100.66;4992769;28;9925;-75
2023/12/27 04:50:07;;;;;;;;;84.50;71.50;;;;;9.06;54.57;100103.28;5045983;28;9752;-75
2023/12/27 04:52:38;;;;;;;;;87.00;76.50;;;;;8.96;54.91;100105.09;5036677;28;11080;-74
2023/12/27 04:55:08;;;;;;;;;88.00;75.75;;;;;8.97;54.87;100118.19;5046185;28;9968;-74
2023/12/27 04:57:37;;;;;;;;;82.00;70.00;;;;;8.93;55.19;100110.31;5029114;28;10048;-78
2023/12/27 05:00:08;;;;;;;;;81.00;65.33;;;;;8.85;55.11;100123.47;5029552;28;9626;-74
2023/12/27 05:02:37;;;;;;;;;80.00;66.67;;;;;8.88;55.21;100125.22;5014719;28;9385;-74
2023/12/27 05:05:07;;;;;;;;;83.67;70.33;;;;;8.94;54.85;100112.09;5087874;28;9429;-74
2023/12/27 05:07:36;;;;;;;;;85.75;72.25;;;;;8.99;54.86;100119.06;5058492;28;9600;-75
2023/12/27 05:10:08;;;;;;;;;79.00;64.75;;;;;8.82;55.74;100110.41;5052096;28;9711;-75
2023/12/27 05:12:37;;;;;;;;;75.75;60.50;;;;;8.48;56.27;100104.41;5012618;28;9542;-78
2023/12/27 05:15:07;;;;;;;;;87.75;76.50;;;;;8.47;56.43;100100.06;5029544;28;9380;-78
2023/12/27 05:17:36;;;;;;;;;81.67;64.67;;;;;8.32;56.69;100104.44;5031019;28;9696;-75
2023/12/27 05:20:06;;;;;;;;;79.00;65.67;;;;;8.42;56.61;100107.91;5049053;28;9068;-76
2023/12/27 05:22:39;;;;;;;;;82.00;63.00;;;;;8.14;57.88;100117.59;5067603;28;9258;-75
2023/12/27 05:25:10;;;;;;;;;78.00;61.00;;;;;8.26;57.48;100131.50;5013735;28;9253;-75
2023/12/27 05:27:39;;;;;;;;;81.67;64.00;;;;;8.35;56.78;100130.66;5013586;28;9092;-76
2023/12/27 05:30:09;;;;;;;;;76.33;61.00;;;;;8.39;57.01;100142.88;5049647;28;9516;-77
2023/12/27 05:32:38;;;;;;;;;78.00;61.00;;;;;8.37;57.40;100128.03;5016423;28;9014;-75
2023/12/27 05:35:09;;;;;;;;;75.25;59.00;;;;;8.30;56.82;100134.13;5014932;28;8962;-74
2023/12/27 05:37:38;;;;;;;;;66.67;53.33;;;;;8.38;56.96;100135.91;5033033;28;8850;-75
2023/12/27 05:40:08;;;;;;;;;78.00;61.33;;;;;8.39;57.05;100142.88;5018663;28;9049;-76
2023/12/27 05:42:38;;;;;;;;;83.33;63.00;;;;;8.54;56.08;100146.31;5065464;28;9251;-77
2023/12/27 05:45:08;;;;;;;;;78.67;61.00;;;;;8.48;56.62;100155.06;5032208;28;8951;-75
2023/12/27 05:47:37;;;;;;;;;72.33;58.00;;;;;8.44;56.79;100145.47;5031860;28;8937;-78
2023/12/27 05:50:09;;;;;;;;;71.50;57.50;;;;;8.27;57.03;100142.88;5047825;28;8834;-75
2023/12/27 05:52:38;;;;;;;;;75.67;61.00;;;;;8.43;56.69;100155.06;5036418;28;9095;-76
2023/12/27 05:55:08;;;;;;;;;75.67;59.67;;;;;8.61;56.46;100154.16;5034145;28;9004;-75
2023/12/27 05:57:39;;;;;;;;;75.75;60.00;;;;;8.72;55.96;100159.34;5087860;28;8988;-75
2023/12/27 06:00:09;;;;;;;;;75.67;60.67;;;;;8.80;55.19;100169.84;5069853;28;8867;-76
2023/12/27 06:02:40;;;;;;;;;75.33;57.33;;;;;8.96;55.14;100165.38;5052530;28;8999;-77
2023/12/27 06:05:10;;;;;;;;;74.75;58.75;;;;;9.02;54.81;100174.09;5064424;28;9046;-75
2023/12/27 06:07:40;;;;;;;;;74.75;59.75;;;;;9.14;54.31;100181.03;5053197;28;8984;-78
2023/12/27 06:10:10;;;;;;;;;72.25;58.00;;;;;9.25;54.30;100180.97;5069526;28;8874;-75
2023/12/27 06:12:40;;;;;;;;;74.33;59.33;;;;;9.34;53.89;100182.69;5053145;28;8855;-75
2023/12/27 06:15:10;;;;;;;;;80.00;61.67;;;;;9.45;53.69;100187.88;5070293;28;9010;-78
2023/12/27 06:17:39;;;;;;;;;73.67;58.67;;;;;9.50;53.37;100179.09;5069645;28;9050;-75
2023/12/27 06:20:10;;;;;;;;;72.33;58.33;;;;;9.55;53.00;100186.94;5064991;28;9783;-77
2023/12/27 06:22:38;;;;;;;;;72.67;58.67;;;;;9.57;53.03;100190.44;5050549;28;9184;-74
2023/12/27 06:25:08;;;;;;;;;75.00;59.67;;;;;9.61;53.03;100189.53;5029497;28;9070;-77
2023/12/27 06:27:37;;;;;;;;;77.33;62.33;;;;;9.67;52.98;100196.50;5031328;28;9010;-77
2023/12/27 06:30:09;;;;;;;;;77.67;60.00;;;;;9.75;52.88;100198.19;5014970;28;9239;-75
2023/12/27 06:32:38;;;;;;;;;79.33;63.00;;;;;9.75;52.76;100206.06;5031817;28;9084;-76
2023/12/27 06:35:08;;;;;;;;;73.75;59.25;;;;;9.78;52.58;100198.19;5035996;28;9226;-78
2023/12/27 06:37:37;;;;;;;;;74.67;57.00;;;;;9.84;52.32;100209.50;5037373;28;8864;-75
2023/12/27 06:40:10;;;;;;;;;76.67;59.00;;;;;9.87;52.33;100212.13;5042887;28;8996;-74
2023/12/27 06:42:38;;;;;;;;;74.00;60.00;;;;;9.90;52.13;100214.72;5041885;28;8971;-75
2023/12/27 06:45:10;;;;;;;;;71.67;57.33;;;;;9.94;52.18;100222.56;5030446;28;9068;-75
2023/12/27 06:47:39;;;;;;;;;79.00;62.00;;;;;9.95;51.96;100221.69;5030688;28;8930;-76
2023/12/27 06:50:09;;;;;;;;;75.67;60.00;;;;;9.99;51.78;100235.69;5043285;28;9416;-76
2023/12/27 06:52:38;;;;;;;;;77.33;60.00;;;;;10.01;51.82;100244.41;5012680;28;9297;-75
2023/12/27 06:55:09;;;;;;;;;80.33;64.67;;;;;10.01;51.79;100239.16;5047464;28;9022;-78
2023/12/27 06:57:39;;;;;;;;;76.00;58.67;;;;;10.06;51.59;100239.13;5072742;28;10240;-75
2023/12/27 07:00:11;;;;;;;;;78.67;62.00;;;;;10.08;51.55;100245.22;5078930;28;9461;-75
2023/12/27 07:02:41;;;;;;;;;77.33;64.00;;;;;10.11;51.41;100246.06;5020245;28;9264;-75
2023/12/27 07:05:11;;;;;;;;;71.25;57.25;;;;;10.13;51.32;100251.31;5034489;28;9307;-73
2023/12/27 07:07:40;;;;;;;;;69.50;56.75;;;;;10.16;51.05;100257.44;5047260;28;8969;-76
2023/12/27 07:10:10;;;;;;;;;71.00;57.67;;;;;10.20;50.86;100271.41;5030567;28;8849;-78
2023/12/27 07:12:41;;;;;;;;;73.33;59.33;;;;;9.93;51.26;100272.47;4997822;28;9088;-76
2023/12/27 07:15:12;;;;;;;;;67.75;52.25;;;;;9.81;51.39;100279.53;5024194;28;8965;-75
2023/12/27 07:17:41;;;;;;;;;75.33;60.67;;;;;9.82;51.56;100289.19;5032950;28;8849;-75
2023/12/27 07:20:11;;;;;;;;;71.00;57.33;;;;;9.89;51.54;100286.50;5031379;28;9096;-76
2023/12/27 07:22:40;;;;;;;;;73.00;59.00;;;;;9.98;51.55;100275.94;4982130;28;9073;-77
2023/12/27 07:25:10;;;;;;;;;80.33;68.33;;;;;10.07;50.93;100286.41;5028646;28;9352;-76
2023/12/27 07:27:39;;;;;;;;;73.67;59.00;;;;;10.10;50.90;100301.25;5029786;28;10105;-77
2023/12/27 07:30:09;;;;;;;;;81.33;66.67;;;;;10.15;50.76;100302.09;5026483;28;9133;-76
2023/12/27 07:32:40;;;;;;;;;82.50;70.75;;;;;10.20;50.69;100295.94;5019220;28;10115;-76
2023/12/27 07:35:09;;;;;;;;;77.00;59.50;;;;;10.28;50.70;100295.00;5050422;28;10138;-78
2023/12/27 07:37:40;;;;;;;;;79.00;65.33;;;;;10.35;50.69;100294.94;5049990;28;9648;-76
2023/12/27 07:40:10;;;;;;;;;79.25;65.00;;;;;10.41;50.17;100315.03;5075484;28;9086;-74
2023/12/27 07:42:39;;;;;;;;;81.33;64.00;;;;;10.48;50.23;100319.38;5024090;28;9569;-75
2023/12/27 07:45:09;;;;;;;;;75.00;59.00;;;;;10.53;49.93;100314.06;5070419;28;9270;-77
2023/12/27 07:47:40;;;;;;;;;73.00;59.00;;;;;10.55;49.88;100323.66;5069322;28;9377;-77
2023/12/27 07:50:09;;;;;;;;;78.67;60.67;;;;;10.60;49.45;100324.50;5068780;28;9194;-77
2023/12/27 07:52:38;;;;;;;;;73.25;56.75;;;;;10.62;49.49;100319.25;5067419;28;9092;-75
2023/12/27 07:55:08;;;;;;;;;71.75;56.75;;;;;10.69;49.33;100315.69;5066830;28;8842;-75
2023/12/27 07:57:37;;;;;;;;;67.50;55.00;;;;;10.77;49.69;100310.38;5067863;28;8868;-75
2023/12/27 08:00:08;;;;;;;;;72.25;57.50;;;;;10.79;49.11;100319.13;5033496;28;8901;-76
2023/12/27 08:02:41;;;;;;;;;72.67;57.67;;;;;10.86;49.27;100327.81;5069216;28;8847;-76
2023/12/27 08:05:10;;;;;;;;;75.00;60.00;;;;;10.89;49.26;100323.41;5051285;28;9815;-76
2023/12/27 08:07:39;;;;;;;;;80.00;69.33;;;;;10.94;48.89;100336.53;5086843;28;9258;-74
2023/12/27 08:10:09;;;;;;;;;78.25;64.75;;;;;10.82;48.56;100334.00;5067295;28;9318;-76
2023/12/27 08:12:38;;;;;;;;;80.25;68.75;;;;;10.83;49.15;100338.38;5068836;28;9721;-76
2023/12/27 08:15:12;;;;;;;;;80.00;68.50;;;;;10.90;48.91;100343.56;5068562;28;9988;-77
2023/12/27 08:17:42;;;;;;;;;79.00;65.75;;;;;11.00;48.73;100346.97;5016466;28;10793;-75
2023/12/27 08:20:12;;;;;;;;;79.75;68.75;;;;;11.08;48.91;100358.28;5066585;28;9557;-75
2023/12/27 08:22:41;;;;;;;;;74.33;60.67;;;;;11.15;48.65;100359.97;5067095;28;9459;-75
2023/12/27 08:25:13;;;;;;;;;77.67;65.33;;;;;11.22;48.74;100359.91;5050557;28;9416;-77
2023/12/27 08:27:41;;;;;;;;;79.00;63.67;;;;;11.29;48.24;100369.50;5025847;28;9340;-75
2023/12/27 08:30:11;;;;;;;;;81.00;71.25;;;;;11.35;48.29;100357.16;5042323;28;9741;-77
2023/12/27 08:32:42;;;;;;;;;80.75;67.50;;;;;11.47;48.16;100360.53;5026356;28;9702;-75
2023/12/27 08:35:11;;;;;;;;;83.50;71.25;;;;;11.42;47.76;100359.69;5026215;28;9861;-75
2023/12/27 08:37:40;;;;;;;;;85.25;75.50;;;;;11.47;48.15;100371.91;5025986;28;9907;-77
2023/12/27 08:40:10;;;;;;;;;85.00;69.00;;;;;11.52;47.89;100380.66;5025957;28;10267;-75
2023/12/27 08:42:40;;;;;;;;;84.25;70.00;;;;;11.39;47.65;100394.84;4993062;28;10071;-76
2023/12/27 08:45:11;;;;;;;;;78.00;65.00;;;;;11.30;47.95;100395.78;5025449;28;9772;-77
2023/12/27 08:47:40;;;;;;;;;74.33;61.00;;;;;11.34;47.96;100399.28;5042256;28;10336;-76
2023/12/27 08:50:11;;;;;;;;;77.33;63.00;;;;;11.47;48.30;100397.38;4993316;28;10171;-78
2023/12/27 08:52:40;;;;;;;;;75.33;60.00;;;;;11.54;47.91;100396.41;5026371;28;9514;-77
2023/12/27 08:55:10;;;;;;;;;69.67;56.33;;;;;10.88;48.28;100397.06;5026025;28;9462;-78
2023/12/27 08:57:40;;;;;;;;;73.67;58.67;;;;;11.06;47.99;100402.16;4986738;28;9032;-77
2023/12/27 09:00:10;;;;;;;;;72.67;59.00;;;;;11.21;48.33;100411.69;5033166;28;9092;-76
2023/12/27 09:02:40;;;;;;;;;74.00;57.67;;;;;11.27;47.62;100413.38;5012415;28;9094;-76
2023/12/27 09:05:11;;;;;;;;;77.75;63.50;;;;;11.06;48.24;100414.44;5030488;28;9433;-76
2023/12/27 09:07:40;;;;;;;;;73.00;57.50;;;;;11.12;48.07;100432.81;5013350;28;9487;-76
2023/12/27 09:10:10;;;;;;;;;67.25;52.75;;;;;10.20;49.69;100429.06;5013225;28;8891;-75
2023/12/27 09:12:39;;;;;;;;;63.50;52.25;;;;;10.69;48.94;100415.59;5029281;28;8876;-76
2023/12/27 09:15:09;;;;;;;;;63.50;50.25;;;;;10.80;48.33;100412.91;4997152;28;8886;-76
2023/12/27 09:17:38;;;;;;;;;63.25;50.75;;;;;10.96;48.31;100416.31;5013431;28;8880;-76
2023/12/27 09:20:09;;;;;;;;;58.25;48.25;;;;;11.11;48.10;100410.91;5013172;28;8995;-76
2023/12/27 09:22:39;;;;;;;;;56.00;46.25;;;;;11.26;47.50;100409.00;4997257;28;8876;-77
2023/12/27 09:25:08;;;;;;;;;60.75;48.25;;;;;11.33;46.77;100403.69;5029393;28;8864;-76
2023/12/27 09:27:37;;;;;;;;;58.50;47.50;;;;;11.46;46.47;100404.38;5046112;28;8845;-76
2023/12/27 09:30:07;;;;;;;;;52.25;43.50;;;;;11.55;46.63;100406.06;5072891;28;8865;-76
2023/12/27 09:32:37;;;;;;;;;66.25;52.00;;;;;11.54;46.21;100406.94;5007427;28;8938;-75
2023/12/27 09:35:06;;;;;;;;;62.75;50.00;;;;;11.51;46.27;100410.50;5089556;28;8876;-76
2023/12/27 09:37:36;;;;;;;;;55.25;44.25;;;;;11.65;45.39;100404.19;5089558;28;8856;-74
2023/12/27 09:40:08;;;;;;;;;53.25;43.75;;;;;11.74;44.65;100404.09;5072441;28;8861;-77
2023/12/27 09:42:39;;;;;;;;;49.25;39.00;;;;;11.83;44.89;100414.53;5095261;28;8860;-78
2023/12/27 09:45:10;;;;;;;;;49.25;40.00;;;;;11.86;44.33;100432.06;5098453;28;8853;-74
2023/12/27 09:47:41;;;;;;;;;60.00;47.75;;;;;10.92;45.61;100441.75;5073187;28;8861;-76
2023/12/27 09:50:11;;;;;;;;;47.50;39.00;;;;;9.85;47.02;100456.34;5055765;28;8845;-75
2023/12/27 09:52:42;;;;;;;;;51.50;42.25;;;;;9.39;48.41;100454.66;5022838;28;9618;-76
2023/12/27 09:55:13;;;;;;;;;43.50;36.50;;;;;9.20;48.87;100443.31;5022896;28;8896;-75
2023/12/27 09:57:42;;;;;;;;;47.25;39.00;;;;;9.15;48.89;100434.56;5072168;28;8845;-76
2023/12/27 10:00:14;;;;;;;;;42.25;37.00;;;;;9.75;47.88;100429.25;5019785;28;8927;-77
2023/12/27 10:02:45;;;;;;;;;25.20;24.20;;;;;9.32;46.59;100437.19;5052003;28;8879;-77
2023/12/27 10:05:20;;;;;;;;;33.20;28.80;;;;;9.00;49.03;100443.31;5052106;28;8879;-78
2023/12/27 10:07:49;;;;;;;;;30.00;30.00;;;;;8.92;48.60;100431.97;5035506;28;8965;-77
2023/12/27 10:10:20;;;;;;;;;23.80;19.80;;;;;9.39;47.28;100431.06;5051952;28;8890;-77
2023/12/27 10:12:56;;;;;;;;;29.80;27.00;;;;;9.10;47.69;100432.84;5052125;28;8878;-76
2023/12/27 10:15:25;;;;;;;;;21.20;20.80;;;;;9.04;46.64;100428.47;5035129;28;8847;-77
2023/12/27 10:17:54;;;;;;;;;26.40;23.40;;;;;9.47;46.75;100422.31;5028064;28;8907;-75
2023/12/27 10:20:36;;;;;;;;;27.20;26.20;;;;;9.50;45.74;100420.53;4995444;28;9053;-77
2023/12/27 10:23:06;;;;;;;;;40.60;32.20;;;;;9.97;45.14;100421.28;5012163;28;8860;-75
2023/12/27 10:25:40;;;;;;;;;35.00;32.75;;;;;10.33;44.89;100414.97;5028258;28;8938;-76
2023/12/27 10:28:09;;;;;;;;;48.50;39.25;;;;;10.66;43.58;100422.66;5012123;28;9159;-77
2023/12/27 10:30:38;;;;;;;;;62.50;50.50;;;;;11.03;42.73;100427.63;5012094;28;8857;-77
2023/12/27 10:33:07;;;;;;;;;66.75;51.00;;;;;11.26;42.38;100422.19;4999059;28;8858;-76
2023/12/27 10:35:39;;;;;;;;;68.00;55.00;;;;;11.52;41.53;100424.50;5057008;28;8870;-77
2023/12/27 10:38:08;;;;;;;;;75.33;57.00;;;;;11.76;41.27;100418.97;5006636;28;8900;-76
2023/12/27 10:40:39;;;;;;;;;73.33;57.67;;;;;11.89;40.33;100413.59;5015443;28;9174;-74
2023/12/27 10:43:09;;;;;;;;;73.50;56.50;;;;;11.99;39.74;100420.47;5047976;28;9148;-75
2023/12/27 10:45:38;;;;;;;;;60.75;49.00;;;;;12.15;38.71;100416.75;5047973;28;9024;-76
2023/12/27 10:48:10;;;;;;;;;60.25;47.75;;;;;12.29;38.98;100415.69;5033483;28;8980;-77
2023/12/27 10:50:41;;;;;;;;;56.50;44.75;;;;;12.45;38.54;100419.00;5052448;28;8944;-77
2023/12/27 10:53:17;;;;;;;;;57.50;47.25;;;;;12.56;37.65;100422.34;5068993;28;8943;-75
2023/12/27 10:55:49;;;;;;;;;24.60;21.80;;;;;12.49;35.54;100405.75;5070372;28;8877;-75
2023/12/27 10:58:22;;;;;;;;;12.80;12.80;;;;;12.45;34.91;100414.59;5047604;28;9028;-75
2023/12/27 11:00:52;;;;;;;;;7.60;6.00;;;;;12.51;35.04;100411.84;5047454;28;8835;-75
2023/12/27 11:03:25;;;;;;;;;11.40;11.00;;;;;12.58;34.48;100417.03;5030661;28;9653;-76
2023/12/27 11:05:58;;;;;;;;;8.80;8.80;;;;;12.67;34.37;100407.19;5030833;28;8822;-76
2023/12/27 11:08:29;;;;;;;;;20.60;18.80;;;;;12.75;34.09;100409.75;5047415;28;8946;-80
2023/12/27 11:11:02;;;;;;;;;18.20;16.00;;;;;12.84;34.27;100398.16;5030566;28;8880;-74
2023/12/27 11:13:35;;;;;;;;;29.60;25.80;;;;;12.85;34.40;100392.88;4965015;28;8861;-76
2023/12/27 11:16:07;;;;;;;;;2.60;1.40;;;;;12.84;34.18;100393.78;5014726;28;8841;-76
2023/12/27 11:18:37;;;;;;;;;17.80;17.80;;;;;12.90;34.66;100387.53;5030357;28;8982;-73
2023/12/27 11:21:07;;;;;;;;;17.80;13.80;;;;;12.83;35.04;100391.16;5031032;28;8842;-76
2023/12/27 11:23:36;;;;;;;;;16.40;15.80;;;;;11.55;36.75;100390.25;5047244;28;9079;-77
2023/12/27 11:26:06;;;;;;;;;21.80;19.40;;;;;11.47;37.90;100389.50;5046174;28;8876;-75
2023/12/27 11:28:38;;;;;;;;;21.60;21.60;;;;;11.84;37.06;100389.97;5049666;28;8850;-75
2023/12/27 11:31:07;;;;;;;;;21.20;20.20;;;;;12.05;37.24;100388.81;5084820;28;8850;-77
2023/12/27 11:33:37;;;;;;;;;25.80;24.20;;;;;11.89;37.69;100396.03;5084914;28;8861;-77